x

Pi-745 Tabs K (42045) Weather Station

11:00am - Thu 23rd Feb 2017 All times are CST. -6 hours from GMT.

  • Wind
    16mph, 18mph gusts
  • Sea Temp 75°f
  • Air Temp 71°f
  • Sea Pressure 1008mb
  • Pi-745 Tabs K
  • Pi-745 Tabs K

More Historic Weather Station data

Upgrade to MSW Pro to gain access to the past 30 days of data for over 8000 Wavebouys and Weather Stations around the globe.

Join Pro

Comparision Forecast

View Surf forecast
   
Thu 02/23 11:00am 16 18 mph 1008mb 75f 71f
10:00am 13 16 mph 1008.4mb 75f 71f
9:00am 13 16 mph 1008.1mb 74f 71f
7:00am 13 18 mph 1007.8mb 74f 69f
4:00am 13 16 mph 1007.7mb 74f 69f
Wed 02/22 4:00am 7
mph
1013.3mb 74f 68f
3:00am 2
mph
1013.3mb 74f 69f
2:00am  -  2 mph 1013.7mb 74f 69f
Tue 02/21 5:00pm 7 9 mph 1013.7mb 75f 70f
1:00pm 16 18 mph 1015.4mb 74f 71f
12:00pm 16 20 mph 1016.6mb 74f 69f
11:00am 16 20 mph 1017.6mb 74f 67f
10:00am 18 20 mph 1018mb 74f 67f
4:00am 13 16 mph 1016.6mb 74f 65f
3:00am 13 16 mph 1016.6mb 74f 66f
12:00am 7 9 mph 1017.1mb 74f 66f
Mon 02/20 11:00pm 4 7 mph 1017.1mb 74f 65f
5:00pm 7 11 mph 1014.1mb 73f 65f
1:00pm 11 16 mph 1015.1mb 72f 64f
12:00pm 11 13 mph 1016mb 72f 64f
11:00am 11 13 mph 1015.7mb 72f 65f
10:00am 11 13 mph 1015.6mb 72f 65f
8:00am 18 36 mph 1014.3mb 73f 69f
7:00am 2 7 mph 1012.3mb 73f 69f
6:00am 2 4 mph 1012mb 73f 70f
4:00am 13 16 mph 1009.4mb 74f 70f
3:00am 18 22 mph 1008.7mb 74f 71f
1:00am 20 25 mph 1009mb 74f 71f
Sun 02/19 11:00pm 22 27 mph 1008.9mb 74f 71f